sensor_id;sensor_type;location;lat;lon;timestamp;pressure;altitude;pressure_sealevel;temperature;humidity
75157;BME280;63736;50.076;8.198;2023-06-22T00:01:55;99589.03;;;23.17;83.26
75157;BME280;63736;50.076;8.198;2023-06-22T00:04:20;99601.81;;;23.16;83.03
75157;BME280;63736;50.076;8.198;2023-06-22T00:06:46;99596.72;;;23.13;82.53
75157;BME280;63736;50.076;8.198;2023-06-22T00:09:11;99616.25;;;23.17;82.91
75157;BME280;63736;50.076;8.198;2023-06-22T00:11:37;99623.63;;;23.16;82.95
75157;BME280;63736;50.076;8.198;2023-06-22T00:14:03;99637.25;;;23.16;82.98
75157;BME280;63736;50.076;8.198;2023-06-22T00:16:29;99639.97;;;23.16;83.12
75157;BME280;63736;50.076;8.198;2023-06-22T00:18:54;99648.97;;;23.17;82.51
75157;BME280;63736;50.076;8.198;2023-06-22T00:21:19;99637.41;;;23.21;83.15
75157;BME280;63736;50.076;8.198;2023-06-22T00:23:45;99638.06;;;23.23;83.21
75157;BME280;63736;50.076;8.198;2023-06-22T00:26:11;99639.97;;;23.23;83.30
75157;BME280;63736;50.076;8.198;2023-06-22T00:28:36;99635.34;;;23.17;83.57
75157;BME280;63736;50.076;8.198;2023-06-22T00:31:01;99631.53;;;23.11;84.10
75157;BME280;63736;50.076;8.198;2023-06-22T00:33:27;99633.84;;;23.07;84.95
75157;BME280;63736;50.076;8.198;2023-06-22T00:35:53;99648.72;;;23.05;85.94
75157;BME280;63736;50.076;8.198;2023-06-22T00:38:18;99661.25;;;22.99;86.57
75157;BME280;63736;50.076;8.198;2023-06-22T00:40:44;99669.25;;;23.01;86.77
75157;BME280;63736;50.076;8.198;2023-06-22T00:43:09;99677.00;;;23.04;87.19
75157;BME280;63736;50.076;8.198;2023-06-22T00:45:34;99690.84;;;23.09;87.92
75157;BME280;63736;50.076;8.198;2023-06-22T00:48:00;99707.88;;;23.18;88.60
75157;BME280;63736;50.076;8.198;2023-06-22T00:50:28;99716.66;;;23.26;88.49
75157;BME280;63736;50.076;8.198;2023-06-22T00:52:59;99716.50;;;23.35;87.95
75157;BME280;63736;50.076;8.198;2023-06-22T00:55:25;99728.66;;;23.39;88.33
75157;BME280;63736;50.076;8.198;2023-06-22T00:57:51;99736.19;;;23.37;89.60
75157;BME280;63736;50.076;8.198;2023-06-22T01:00:22;99731.38;;;23.25;91.17
75157;BME280;63736;50.076;8.198;2023-06-22T01:02:50;99742.44;;;23.17;92.82
75157;BME280;63736;50.076;8.198;2023-06-22T01:05:21;99744.06;;;23.05;94.71
75157;BME280;63736;50.076;8.198;2023-06-22T01:10:46;99694.72;;;22.73;100.00
75157;BME280;63736;50.076;8.198;2023-06-22T01:16:06;99609.00;;;22.07;100.00
75157;BME280;63736;50.076;8.198;2023-06-22T01:18:35;99593.75;;;21.64;100.00
75157;BME280;63736;50.076;8.198;2023-06-22T01:21:04;99606.84;;;21.32;100.00
75157;BME280;63736;50.076;8.198;2023-06-22T01:23:51;99620.72;;;21.16;100.00
75157;BME280;63736;50.076;8.198;2023-06-22T01:26:42;99622.66;;;21.00;100.00
75157;BME280;63736;50.076;8.198;2023-06-22T01:29:10;99621.31;;;20.89;100.00
75157;BME280;63736;50.076;8.198;2023-06-22T01:31:39;99619.78;;;20.80;100.00
75157;BME280;63736;50.076;8.198;2023-06-22T01:34:06;99633.06;;;20.75;100.00
75157;BME280;63736;50.076;8.198;2023-06-22T01:36:33;99639.16;;;20.77;100.00
75157;BME280;63736;50.076;8.198;2023-06-22T01:38:59;99645.22;;;20.79;100.00
75157;BME280;63736;50.076;8.198;2023-06-22T01:41:25;99651.69;;;20.78;100.00
75157;BME280;63736;50.076;8.198;2023-06-22T01:43:52;99661.97;;;20.83;100.00
75157;BME280;63736;50.076;8.198;2023-06-22T01:46:18;99652.41;;;20.87;100.00
75157;BME280;63736;50.076;8.198;2023-06-22T01:48:45;99634.06;;;20.89;100.00
75157;BME280;63736;50.076;8.198;2023-06-22T01:51:10;99611.22;;;20.83;100.00
75157;BME280;63736;50.076;8.198;2023-06-22T01:53:36;99588.41;;;20.77;100.00
75157;BME280;63736;50.076;8.198;2023-06-22T01:56:01;99588.41;;;20.77;100.00
75157;BME280;63736;50.076;8.198;2023-06-22T01:58:27;99588.22;;;20.79;100.00
75157;BME280;63736;50.076;8.198;2023-06-22T02:01:14;99596.16;;;20.80;100.00
75157;BME280;63736;50.076;8.198;2023-06-22T02:03:48;99583.66;;;20.79;100.00
75157;BME280;63736;50.076;8.198;2023-06-22T02:06:21;99578.84;;;20.82;100.00
75157;BME280;63736;50.076;8.198;2023-06-22T02:08:54;99589.72;;;20.82;100.00
75157;BME280;63736;50.076;8.198;2023-06-22T02:11:20;99595.78;;;20.84;100.00
75157;BME280;63736;50.076;8.198;2023-06-22T02:13:46;99610.19;;;20.84;100.00
75157;BME280;63736;50.076;8.198;2023-06-22T02:16:14;99609.16;;;20.85;100.00
75157;BME280;63736;50.076;8.198;2023-06-22T02:18:46;99610.84;;;20.86;100.00
75157;BME280;63736;50.076;8.198;2023-06-22T02:21:11;99612.97;;;20.91;100.00
75157;BME280;63736;50.076;8.198;2023-06-22T02:23:36;99618.19;;;20.92;100.00
75157;BME280;63736;50.076;8.198;2023-06-22T02:26:02;99619.88;;;20.93;100.00
75157;BME280;63736;50.076;8.198;2023-06-22T02:28:28;99630.75;;;20.93;100.00
75157;BME280;63736;50.076;8.198;2023-06-22T02:30:53;99645.00;;;20.95;100.00
75157;BME280;63736;50.076;8.198;2023-06-22T02:33:19;99636.66;;;20.97;100.00
75157;BME280;63736;50.076;8.198;2023-06-22T02:35:44;99615.31;;;20.94;100.00
75157;BME280;63736;50.076;8.198;2023-06-22T02:38:13;99588.72;;;20.89;100.00
75157;BME280;63736;50.076;8.198;2023-06-22T02:40:38;99569.06;;;20.87;100.00
75157;BME280;63736;50.076;8.198;2023-06-22T02:43:03;99552.16;;;20.85;100.00
75157;BME280;63736;50.076;8.198;2023-06-22T02:45:29;99554.22;;;20.83;100.00
75157;BME280;63736;50.076;8.198;2023-06-22T02:47:55;99559.84;;;20.82;100.00
75157;BME280;63736;50.076;8.198;2023-06-22T02:50:20;99571.72;;;20.80;100.00
75157;BME280;63736;50.076;8.198;2023-06-22T02:52:46;99570.06;;;20.79;100.00
75157;BME280;63736;50.076;8.198;2023-06-22T02:55:11;99572.59;;;20.81;100.00
75157;BME280;63736;50.076;8.198;2023-06-22T02:57:36;99564.44;;;20.81;100.00
75157;BME280;63736;50.076;8.198;2023-06-22T03:00:03;99564.25;;;20.83;100.00
75157;BME280;63736;50.076;8.198;2023-06-22T03:02:41;99557.34;;;20.80;100.00
75157;BME280;63736;50.076;8.198;2023-06-22T03:05:07;99549.59;;;20.77;100.00
75157;BME280;63736;50.076;8.198;2023-06-22T03:07:32;99549.13;;;20.73;100.00
75157;BME280;63736;50.076;8.198;2023-06-22T03:09:57;99538.47;;;20.72;100.00
75157;BME280;63736;50.076;8.198;2023-06-22T03:12:22;99536.09;;;20.69;100.00
75157;BME280;63736;50.076;8.198;2023-06-22T03:14:48;99544.53;;;20.74;100.00
75157;BME280;63736;50.076;8.198;2023-06-22T03:17:13;99542.28;;;20.77;100.00
75157;BME280;63736;50.076;8.198;2023-06-22T03:19:38;99540.63;;;20.83;100.00
75157;BME280;63736;50.076;8.198;2023-06-22T03:22:04;99546.31;;;20.88;100.00
75157;BME280;63736;50.076;8.198;2023-06-22T03:24:29;99547.59;;;20.92;100.00
75157;BME280;63736;50.076;8.198;2023-06-22T03:26:54;99539.09;;;20.95;100.00
75157;BME280;63736;50.076;8.198;2023-06-22T03:29:20;99536.16;;;20.97;100.00
75157;BME280;63736;50.076;8.198;2023-06-22T03:31:45;99536.38;;;20.95;100.00
75157;BME280;63736;50.076;8.198;2023-06-22T03:34:10;99536.81;;;20.99;100.00
75157;BME280;63736;50.076;8.198;2023-06-22T03:36:36;99535.13;;;20.98;100.00
75157;BME280;63736;50.076;8.198;2023-06-22T03:39:01;99534.72;;;21.01;100.00
75157;BME280;63736;50.076;8.198;2023-06-22T03:41:26;99527.88;;;21.05;100.00
75157;BME280;63736;50.076;8.198;2023-06-22T03:43:52;99527.09;;;21.11;100.00
75157;BME280;63736;50.076;8.198;2023-06-22T03:46:17;99521.06;;;21.16;100.00
75157;BME280;63736;50.076;8.198;2023-06-22T03:48:42;99529.47;;;21.21;100.00
75157;BME280;63736;50.076;8.198;2023-06-22T03:51:08;99521.72;;;21.25;100.00
75157;BME280;63736;50.076;8.198;2023-06-22T03:53:33;99526.78;;;21.28;100.00
75157;BME280;63736;50.076;8.198;2023-06-22T03:55:58;99534.53;;;21.31;100.00
75157;BME280;63736;50.076;8.198;2023-06-22T03:58:23;99534.97;;;21.35;100.00
75157;BME280;63736;50.076;8.198;2023-06-22T04:00:50;99533.53;;;21.39;100.00
75157;BME280;63736;50.076;8.198;2023-06-22T04:03:16;99527.69;;;21.42;100.00
75157;BME280;63736;50.076;8.198;2023-06-22T04:05:43;99542.13;;;21.42;100.00
75157;BME280;63736;50.076;8.198;2023-06-22T04:08:09;99529.81;;;21.46;100.00
75157;BME280;63736;50.076;8.198;2023-06-22T04:10:34;99542.38;;;21.48;100.00
75157;BME280;63736;50.076;8.198;2023-06-22T04:13:00;99545.72;;;21.50;100.00
75157;BME280;63736;50.076;8.198;2023-06-22T04:15:25;99544.47;;;21.52;100.00
75157;BME280;63736;50.076;8.198;2023-06-22T04:17:51;99555.00;;;21.55;100.00
75157;BME280;63736;50.076;8.198;2023-06-22T04:20:16;99545.41;;;21.59;100.00
75157;BME280;63736;50.076;8.198;2023-06-22T04:22:41;99553.56;;;21.59;100.00
75157;BME280;63736;50.076;8.198;2023-06-22T04:25:07;99552.97;;;21.64;100.00
75157;BME280;63736;50.076;8.198;2023-06-22T04:27:33;99559.22;;;21.65;100.00
75157;BME280;63736;50.076;8.198;2023-06-22T04:30:05;99559.22;;;21.65;100.00
75157;BME280;63736;50.076;8.198;2023-06-22T04:32:32;99569.06;;;21.66;100.00
75157;BME280;63736;50.076;8.198;2023-06-22T04:34:57;99558.81;;;21.68;100.00
75157;BME280;63736;50.076;8.198;2023-06-22T04:37:22;99561.97;;;21.71;100.00
75157;BME280;63736;50.076;8.198;2023-06-22T04:39:48;99557.81;;;21.75;100.00
75157;BME280;63736;50.076;8.198;2023-06-22T04:42:14;99553.84;;;21.78;100.00
75157;BME280;63736;50.076;8.198;2023-06-22T04:44:39;99560.38;;;21.84;100.00
75157;BME280;63736;50.076;8.198;2023-06-22T04:47:05;99564.16;;;21.89;100.00
75157;BME280;63736;50.076;8.198;2023-06-22T04:49:34;99552.28;;;21.97;100.00
75157;BME280;63736;50.076;8.198;2023-06-22T04:52:02;99550.41;;;22.04;100.00
75157;BME280;63736;50.076;8.198;2023-06-22T04:54:28;99548.56;;;22.11;100.00
75157;BME280;63736;50.076;8.198;2023-06-22T04:56:53;99552.16;;;22.19;100.00
75157;BME280;63736;50.076;8.198;2023-06-22T04:59:25;99553.84;;;22.26;100.00
75157;BME280;63736;50.076;8.198;2023-06-22T05:01:54;99547.56;;;22.33;100.00
75157;BME280;63736;50.076;8.198;2023-06-22T05:04:21;99547.63;;;22.39;100.00
75157;BME280;63736;50.076;8.198;2023-06-22T05:06:47;99551.00;;;22.48;100.00
75157;BME280;63736;50.076;8.198;2023-06-22T05:09:12;99552.47;;;22.57;100.00
75157;BME280;63736;50.076;8.198;2023-06-22T05:11:38;99553.94;;;22.67;100.00
75157;BME280;63736;50.076;8.198;2023-06-22T05:14:03;99560.47;;;22.86;100.00
75157;BME280;63736;50.076;8.198;2023-06-22T05:16:29;99558.59;;;23.06;100.00
75157;BME280;63736;50.076;8.198;2023-06-22T05:18:54;99552.91;;;23.48;100.00
75157;BME280;63736;50.076;8.198;2023-06-22T05:21:22;99543.94;;;24.06;100.00
75157;BME280;63736;50.076;8.198;2023-06-22T05:23:48;99535.31;;;24.48;100.00
75157;BME280;63736;50.076;8.198;2023-06-22T05:26:13;99546.63;;;24.84;100.00
75157;BME280;63736;50.076;8.198;2023-06-22T05:28:39;99536.56;;;25.10;100.00
75157;BME280;63736;50.076;8.198;2023-06-22T05:31:04;99530.72;;;25.50;100.00
75157;BME280;63736;50.076;8.198;2023-06-22T05:33:29;99527.03;;;26.30;100.00
75157;BME280;63736;50.076;8.198;2023-06-22T05:35:54;99523.66;;;27.25;100.00
75157;BME280;63736;50.076;8.198;2023-06-22T05:38:20;99526.72;;;28.16;100.00
75157;BME280;63736;50.076;8.198;2023-06-22T05:40:45;99520.03;;;29.04;91.23
75157;BME280;63736;50.076;8.198;2023-06-22T05:43:10;99531.31;;;29.59;78.67
75157;BME280;63736;50.076;8.198;2023-06-22T05:45:35;99533.16;;;30.20;75.39
75157;BME280;63736;50.076;8.198;2023-06-22T05:48:01;99528.63;;;30.90;72.45
75157;BME280;63736;50.076;8.198;2023-06-22T05:50:26;99536.22;;;31.48;65.79
75157;BME280;63736;50.076;8.198;2023-06-22T05:52:51;99533.09;;;31.82;62.15
75157;BME280;63736;50.076;8.198;2023-06-22T05:55:17;99527.13;;;32.11;59.11
75157;BME280;63736;50.076;8.198;2023-06-22T05:57:44;99535.00;;;32.45;57.96
75157;BME280;63736;50.076;8.198;2023-06-22T06:00:09;99536.69;;;32.92;57.68
75157;BME280;63736;50.076;8.198;2023-06-22T06:02:36;99539.44;;;33.29;51.99
75157;BME280;63736;50.076;8.198;2023-06-22T06:05:02;99527.75;;;33.52;51.66
75157;BME280;63736;50.076;8.198;2023-06-22T06:07:28;99537.59;;;34.00;49.48
75157;BME280;63736;50.076;8.198;2023-06-22T06:09:54;99533.88;;;34.20;47.78
75157;BME280;63736;50.076;8.198;2023-06-22T06:12:19;99534.00;;;34.49;47.75
75157;BME280;63736;50.076;8.198;2023-06-22T06:14:45;99539.78;;;34.93;45.94
75157;BME280;63736;50.076;8.198;2023-06-22T06:17:10;99542.19;;;35.04;44.42
75157;BME280;63736;50.076;8.198;2023-06-22T06:19:35;99546.63;;;35.35;43.49
75157;BME280;63736;50.076;8.198;2023-06-22T06:22:01;99546.00;;;35.43;42.84
75157;BME280;63736;50.076;8.198;2023-06-22T06:24:26;99533.97;;;35.48;42.04
75157;BME280;63736;50.076;8.198;2023-06-22T06:26:51;99534.09;;;35.08;40.93
75157;BME280;63736;50.076;8.198;2023-06-22T06:29:17;99532.28;;;34.93;41.15
75157;BME280;63736;50.076;8.198;2023-06-22T06:31:42;99528.19;;;34.85;41.64
75157;BME280;63736;50.076;8.198;2023-06-22T06:34:07;99528.69;;;34.93;41.08
75157;BME280;63736;50.076;8.198;2023-06-22T06:36:32;99520.53;;;35.06;41.35
75157;BME280;63736;50.076;8.198;2023-06-22T06:38:58;99522.47;;;35.35;40.28
75157;BME280;63736;50.076;8.198;2023-06-22T06:41:23;99525.03;;;35.56;39.49
75157;BME280;63736;50.076;8.198;2023-06-22T06:43:48;99518.38;;;35.52;39.46
75157;BME280;63736;50.076;8.198;2023-06-22T06:46:14;99513.34;;;35.78;39.49
75157;BME280;63736;50.076;8.198;2023-06-22T06:48:39;99515.97;;;36.13;37.50
75157;BME280;63736;50.076;8.198;2023-06-22T06:51:05;99513.66;;;36.58;37.01
75157;BME280;63736;50.076;8.198;2023-06-22T06:53:30;99517.13;;;37.02;35.88
75157;BME280;63736;50.076;8.198;2023-06-22T06:55:56;99514.94;;;37.32;35.40
75157;BME280;63736;50.076;8.198;2023-06-22T06:58:22;99519.69;;;37.59;34.12
75157;BME280;63736;50.076;8.198;2023-06-22T07:00:48;99521.63;;;37.59;34.38
75157;BME280;63736;50.076;8.198;2023-06-22T07:03:13;99521.00;;;37.90;33.76
75157;BME280;63736;50.076;8.198;2023-06-22T07:05:39;99516.34;;;37.99;33.45
75157;BME280;63736;50.076;8.198;2023-06-22T07:08:04;99512.53;;;38.09;32.81
75157;BME280;63736;50.076;8.198;2023-06-22T07:10:30;99513.69;;;38.67;32.43
75157;BME280;63736;50.076;8.198;2023-06-22T07:12:58;99510.28;;;38.93;31.19
75157;BME280;63736;50.076;8.198;2023-06-22T07:15:25;99514.81;;;38.89;30.91
75157;BME280;63736;50.076;8.198;2023-06-22T07:17:50;99518.53;;;38.98;30.37
75157;BME280;63736;50.076;8.198;2023-06-22T07:20:15;99515.69;;;39.21;30.27
75157;BME280;63736;50.076;8.198;2023-06-22T07:22:43;99512.28;;;39.32;29.66
75157;BME280;63736;50.076;8.198;2023-06-22T07:25:08;99508.16;;;39.30;29.36
75157;BME280;63736;50.076;8.198;2023-06-22T07:27:45;99518.94;;;39.94;28.91
75157;BME280;63736;50.076;8.198;2023-06-22T07:30:11;99512.22;;;40.13;28.57
75157;BME280;63736;50.076;8.198;2023-06-22T07:32:36;99500.38;;;40.60;28.45
75157;BME280;63736;50.076;8.198;2023-06-22T07:35:02;99507.09;;;41.03;27.90
75157;BME280;63736;50.076;8.198;2023-06-22T07:37:28;99491.78;;;41.39;27.15
75157;BME280;63736;50.076;8.198;2023-06-22T07:39:54;99497.97;;;41.92;26.56
75157;BME280;63736;50.076;8.198;2023-06-22T07:42:26;99487.22;;;41.64;26.50
75157;BME280;63736;50.076;8.198;2023-06-22T07:44:51;99478.59;;;41.39;26.45
75157;BME280;63736;50.076;8.198;2023-06-22T07:47:17;99488.19;;;41.29;26.29
75157;BME280;63736;50.076;8.198;2023-06-22T07:49:46;99482.56;;;41.00;26.35
75157;BME280;63736;50.076;8.198;2023-06-22T07:52:11;99475.69;;;40.44;27.23
75157;BME280;63736;50.076;8.198;2023-06-22T07:54:37;99472.22;;;40.47;27.22
75157;BME280;63736;50.076;8.198;2023-06-22T07:57:03;99467.78;;;40.20;26.82
75157;BME280;63736;50.076;8.198;2023-06-22T07:59:28;99469.53;;;39.81;27.26
75157;BME280;63736;50.076;8.198;2023-06-22T08:01:55;99462.97;;;39.86;27.88
75157;BME280;63736;50.076;8.198;2023-06-22T08:04:20;99475.38;;;40.28;27.13
75157;BME280;63736;50.076;8.198;2023-06-22T08:06:45;99469.56;;;40.77;27.24
75157;BME280;63736;50.076;8.198;2023-06-22T08:09:11;99459.72;;;40.62;26.58
75157;BME280;63736;50.076;8.198;2023-06-22T08:11:37;99464.09;;;40.99;26.25
75157;BME280;63736;50.076;8.198;2023-06-22T08:14:02;99460.66;;;40.84;26.11
75157;BME280;63736;50.076;8.198;2023-06-22T08:16:27;99451.81;;;40.47;26.49
75157;BME280;63736;50.076;8.198;2023-06-22T08:18:53;99449.00;;;39.94;27.21
75157;BME280;63736;50.076;8.198;2023-06-22T08:21:18;99453.63;;;40.08;27.59
75157;BME280;63736;50.076;8.198;2023-06-22T08:23:43;99449.16;;;40.07;26.78
75157;BME280;63736;50.076;8.198;2023-06-22T08:26:08;99449.69;;;40.35;26.58
75157;BME280;63736;50.076;8.198;2023-06-22T08:28:34;99450.16;;;40.02;26.88
75157;BME280;63736;50.076;8.198;2023-06-22T08:30:59;99440.63;;;40.12;26.94
75157;BME280;63736;50.076;8.198;2023-06-22T08:33:25;99440.00;;;40.15;27.24
75157;BME280;63736;50.076;8.198;2023-06-22T08:35:57;99455.88;;;39.79;27.03
75157;BME280;63736;50.076;8.198;2023-06-22T08:38:23;99462.66;;;39.87;27.34
75157;BME280;63736;50.076;8.198;2023-06-22T08:40:48;99450.47;;;39.83;27.46
75157;BME280;63736;50.076;8.198;2023-06-22T08:43:14;99438.78;;;39.63;27.78
75157;BME280;63736;50.076;8.198;2023-06-22T08:45:39;99440.63;;;39.94;27.50
75157;BME280;63736;50.076;8.198;2023-06-22T08:48:05;99427.44;;;39.86;27.02
75157;BME280;63736;50.076;8.198;2023-06-22T08:50:30;99418.22;;;39.86;27.65
75157;BME280;63736;50.076;8.198;2023-06-22T08:52:55;99416.59;;;39.93;27.25
75157;BME280;63736;50.076;8.198;2023-06-22T08:55:20;99411.56;;;39.46;28.00
75157;BME280;63736;50.076;8.198;2023-06-22T08:57:46;99411.25;;;39.48;28.22
75157;BME280;63736;50.076;8.198;2023-06-22T09:00:11;99420.94;;;39.02;28.27
75157;BME280;63736;50.076;8.198;2023-06-22T09:02:46;99422.19;;;38.64;29.05
75157;BME280;63736;50.076;8.198;2023-06-22T09:05:12;99420.69;;;38.12;30.02
75157;BME280;63736;50.076;8.198;2023-06-22T09:07:37;99413.34;;;37.66;30.54
75157;BME280;63736;50.076;8.198;2023-06-22T09:10:03;99405.03;;;36.63;32.39
75157;BME280;63736;50.076;8.198;2023-06-22T09:12:32;99417.28;;;36.95;32.22
75157;BME280;63736;50.076;8.198;2023-06-22T09:14:58;99408.69;;;37.61;31.19
75157;BME280;63736;50.076;8.198;2023-06-22T09:17:25;99407.47;;;38.04;30.39
75157;BME280;63736;50.076;8.198;2023-06-22T09:19:50;99401.78;;;38.55;29.65
75157;BME280;63736;50.076;8.198;2023-06-22T09:22:15;99406.94;;;38.39;29.98
75157;BME280;63736;50.076;8.198;2023-06-22T09:24:41;99410.88;;;38.38;30.06
75157;BME280;63736;50.076;8.198;2023-06-22T09:27:06;99396.78;;;39.06;29.48
75157;BME280;63736;50.076;8.198;2023-06-22T09:29:31;99401.19;;;39.38;29.12
75157;BME280;63736;50.076;8.198;2023-06-22T09:32:00;99389.25;;;39.55;28.66
75157;BME280;63736;50.076;8.198;2023-06-22T09:34:25;99404.22;;;39.68;28.40
75157;BME280;63736;50.076;8.198;2023-06-22T09:36:51;99391.19;;;38.97;28.76
75157;BME280;63736;50.076;8.198;2023-06-22T09:39:18;99385.03;;;38.55;29.36
75157;BME280;63736;50.076;8.198;2023-06-22T09:41:43;99396.38;;;36.98;31.87
75157;BME280;63736;50.076;8.198;2023-06-22T09:44:08;99390.28;;;35.97;33.43
75157;BME280;63736;50.076;8.198;2023-06-22T09:46:33;99377.16;;;35.40;34.78
75157;BME280;63736;50.076;8.198;2023-06-22T09:48:59;99379.78;;;34.78;36.23
75157;BME280;63736;50.076;8.198;2023-06-22T09:51:24;99367.75;;;34.34;37.50
75157;BME280;63736;50.076;8.198;2023-06-22T09:53:50;99353.03;;;34.63;37.46
75157;BME280;63736;50.076;8.198;2023-06-22T09:56:16;99374.69;;;35.58;35.43
75157;BME280;63736;50.076;8.198;2023-06-22T09:58:45;99361.66;;;35.96;34.95
75157;BME280;63736;50.076;8.198;2023-06-22T10:01:17;99356.97;;;36.91;33.38
75157;BME280;63736;50.076;8.198;2023-06-22T10:03:43;99351.28;;;36.96;32.96
75157;BME280;63736;50.076;8.198;2023-06-22T10:06:08;99357.97;;;36.81;33.00
75157;BME280;63736;50.076;8.198;2023-06-22T10:08:35;99342.59;;;36.22;33.87
75157;BME280;63736;50.076;8.198;2023-06-22T10:11:00;99338.44;;;35.87;34.22
75157;BME280;63736;50.076;8.198;2023-06-22T10:13:26;99335.97;;;35.85;34.54
75157;BME280;63736;50.076;8.198;2023-06-22T10:15:51;99347.84;;;35.91;34.80
75157;BME280;63736;50.076;8.198;2023-06-22T10:18:20;99342.13;;;35.20;35.77
75157;BME280;63736;50.076;8.198;2023-06-22T10:20:48;99330.69;;;34.49;37.08
75157;BME280;63736;50.076;8.198;2023-06-22T10:23:14;99324.59;;;33.83;38.72
75157;BME280;63736;50.076;8.198;2023-06-22T10:25:39;99326.41;;;33.53;39.63
75157;BME280;63736;50.076;8.198;2023-06-22T10:28:04;99334.06;;;33.26;40.06
75157;BME280;63736;50.076;8.198;2023-06-22T10:30:30;99317.22;;;33.13;40.25
75157;BME280;63736;50.076;8.198;2023-06-22T10:32:55;99306.63;;;33.25;40.24
75157;BME280;63736;50.076;8.198;2023-06-22T10:35:20;99304.41;;;33.32;39.99
75157;BME280;63736;50.076;8.198;2023-06-22T10:37:46;99294.56;;;33.05;40.62
75157;BME280;63736;50.076;8.198;2023-06-22T10:40:13;99296.34;;;32.65;41.76
75157;BME280;63736;50.076;8.198;2023-06-22T10:42:39;99280.03;;;32.74;42.07
75157;BME280;63736;50.076;8.198;2023-06-22T10:45:05;99268.84;;;33.00;41.60
75157;BME280;63736;50.076;8.198;2023-06-22T10:47:31;99263.16;;;33.31;41.35
75157;BME280;63736;50.076;8.198;2023-06-22T10:49:56;99266.38;;;33.48;41.26
75157;BME280;63736;50.076;8.198;2023-06-22T10:52:21;99265.72;;;33.17;40.77
75157;BME280;63736;50.076;8.198;2023-06-22T10:54:47;99254.16;;;33.04;41.26
75157;BME280;63736;50.076;8.198;2023-06-22T10:57:12;99246.41;;;33.06;41.15
75157;BME280;63736;50.076;8.198;2023-06-22T10:59:37;99249.75;;;32.98;41.27
75157;BME280;63736;50.076;8.198;2023-06-22T11:02:02;99231.63;;;32.76;41.80
75157;BME280;63736;50.076;8.198;2023-06-22T11:04:28;99243.78;;;32.75;41.77
75157;BME280;63736;50.076;8.198;2023-06-22T11:06:53;99242.28;;;32.99;41.37
75157;BME280;63736;50.076;8.198;2023-06-22T11:09:18;99236.31;;;33.26;40.97
75157;BME280;63736;50.076;8.198;2023-06-22T11:11:50;99235.88;;;33.53;40.08
75157;BME280;63736;50.076;8.198;2023-06-22T11:14:18;99248.72;;;33.73;39.93
75157;BME280;63736;50.076;8.198;2023-06-22T11:16:43;99223.56;;;33.70;38.62
75157;BME280;63736;50.076;8.198;2023-06-22T11:19:09;99222.50;;;33.60;38.28
75157;BME280;63736;50.076;8.198;2023-06-22T11:21:34;99219.75;;;33.60;38.38
75157;BME280;63736;50.076;8.198;2023-06-22T11:24:00;99215.88;;;33.62;37.72
75157;BME280;63736;50.076;8.198;2023-06-22T11:26:26;99216.75;;;33.57;37.69
75157;BME280;63736;50.076;8.198;2023-06-22T11:28:54;99219.19;;;33.64;37.38
75157;BME280;63736;50.076;8.198;2023-06-22T11:31:20;99207.41;;;33.82;37.28
75157;BME280;63736;50.076;8.198;2023-06-22T11:33:45;99214.59;;;34.13;37.08
75157;BME280;63736;50.076;8.198;2023-06-22T11:36:12;99214.88;;;34.11;36.45
75157;BME280;63736;50.076;8.198;2023-06-22T11:38:37;99207.88;;;33.95;36.77
75157;BME280;63736;50.076;8.198;2023-06-22T11:41:05;99193.22;;;33.89;37.05
75157;BME280;63736;50.076;8.198;2023-06-22T11:43:31;99200.75;;;33.83;36.71
75157;BME280;63736;50.076;8.198;2023-06-22T11:45:56;99198.50;;;33.85;37.00
75157;BME280;63736;50.076;8.198;2023-06-22T11:48:23;99191.63;;;33.77;37.18
75157;BME280;63736;50.076;8.198;2023-06-22T11:50:49;99196.59;;;33.86;36.92
75157;BME280;63736;50.076;8.198;2023-06-22T11:53:14;99187.31;;;33.96;37.02
75157;BME280;63736;50.076;8.198;2023-06-22T11:55:41;99182.78;;;34.05;36.70
75157;BME280;63736;50.076;8.198;2023-06-22T11:58:07;99179.63;;;34.17;37.27
75157;BME280;63736;50.076;8.198;2023-06-22T12:00:33;99176.81;;;34.22;36.47
75157;BME280;63736;50.076;8.198;2023-06-22T12:02:58;99182.81;;;34.29;36.25
75157;BME280;63736;50.076;8.198;2023-06-22T12:05:23;99187.22;;;34.35;36.49
75157;BME280;63736;50.076;8.198;2023-06-22T12:07:50;99181.19;;;34.52;36.06
75157;BME280;63736;50.076;8.198;2023-06-22T12:10:15;99182.78;;;34.78;35.72
75157;BME280;63736;50.076;8.198;2023-06-22T12:12:41;99183.56;;;34.83;35.42
75157;BME280;63736;50.076;8.198;2023-06-22T12:15:08;99187.72;;;34.86;35.38
75157;BME280;63736;50.076;8.198;2023-06-22T12:17:34;99175.09;;;35.13;34.90
75157;BME280;63736;50.076;8.198;2023-06-22T12:19:59;99183.06;;;35.38;34.63
75157;BME280;63736;50.076;8.198;2023-06-22T12:22:25;99178.91;;;35.55;34.81
75157;BME280;63736;50.076;8.198;2023-06-22T12:24:50;99178.94;;;35.69;34.63
75157;BME280;63736;50.076;8.198;2023-06-22T12:27:17;99179.31;;;35.62;34.31
75157;BME280;63736;50.076;8.198;2023-06-22T12:29:44;99172.22;;;35.56;34.67
75157;BME280;63736;50.076;8.198;2023-06-22T12:32:10;99157.88;;;35.49;34.18
75157;BME280;63736;50.076;8.198;2023-06-22T12:34:38;99156.72;;;35.36;34.47
75157;BME280;63736;50.076;8.198;2023-06-22T12:37:04;99147.78;;;35.20;34.80
75157;BME280;63736;50.076;8.198;2023-06-22T12:39:30;99150.25;;;35.21;34.29
75157;BME280;63736;50.076;8.198;2023-06-22T12:41:56;99147.63;;;35.11;34.26
75157;BME280;63736;50.076;8.198;2023-06-22T12:44:21;99154.53;;;35.14;34.67
75157;BME280;63736;50.076;8.198;2023-06-22T12:46:46;99140.28;;;35.20;34.51
75157;BME280;63736;50.076;8.198;2023-06-22T12:49:11;99142.28;;;35.34;34.58
75157;BME280;63736;50.076;8.198;2023-06-22T12:51:40;99132.47;;;35.42;34.32
75157;BME280;63736;50.076;8.198;2023-06-22T12:54:06;99135.75;;;35.44;34.38
75157;BME280;63736;50.076;8.198;2023-06-22T12:56:32;99127.66;;;35.47;34.56
75157;BME280;63736;50.076;8.198;2023-06-22T12:58:57;99126.00;;;35.46;34.36